sensor_id;sensor_type;location;lat;lon;timestamp;temperature;humidity
25128;DHT22;13107;51.304;6.866;2022-09-30T00:00:27;4.30;99.90
25128;DHT22;13107;51.304;6.866;2022-09-30T00:04:28;4.20;99.90
25128;DHT22;13107;51.304;6.866;2022-09-30T00:08:30;4.10;99.90
25128;DHT22;13107;51.304;6.866;2022-09-30T00:12:32;4.10;99.90
25128;DHT22;13107;51.304;6.866;2022-09-30T00:16:41;4.10;99.90
25128;DHT22;13107;51.304;6.866;2022-09-30T00:20:51;4.20;99.90
25128;DHT22;13107;51.304;6.866;2022-09-30T00:24:58;4.10;99.90
25128;DHT22;13107;51.304;6.866;2022-09-30T00:29:01;4.10;99.90
25128;DHT22;13107;51.304;6.866;2022-09-30T00:33:03;4.10;99.90
25128;DHT22;13107;51.304;6.866;2022-09-30T00:37:04;4.00;99.90
25128;DHT22;13107;51.304;6.866;2022-09-30T00:41:06;4.00;99.90
25128;DHT22;13107;51.304;6.866;2022-09-30T00:45:10;4.00;99.90
25128;DHT22;13107;51.304;6.866;2022-09-30T00:49:19;4.00;99.90
25128;DHT22;13107;51.304;6.866;2022-09-30T00:53:29;4.00;99.90
25128;DHT22;13107;51.304;6.866;2022-09-30T00:57:35;3.90;99.90
25128;DHT22;13107;51.304;6.866;2022-09-30T01:01:39;3.90;99.90
25128;DHT22;13107;51.304;6.866;2022-09-30T01:05:41;3.80;99.90
25128;DHT22;13107;51.304;6.866;2022-09-30T01:09:43;3.80;99.90
25128;DHT22;13107;51.304;6.866;2022-09-30T01:13:48;3.80;99.90
25128;DHT22;13107;51.304;6.866;2022-09-30T01:18:02;3.80;99.90
25128;DHT22;13107;51.304;6.866;2022-09-30T01:22:13;3.80;99.90
25128;DHT22;13107;51.304;6.866;2022-09-30T01:39:45;3.70;99.90
25128;DHT22;13107;51.304;6.866;2022-09-30T01:53:02;3.60;99.90
25128;DHT22;13107;51.304;6.866;2022-09-30T01:57:18;3.60;99.90
25128;DHT22;13107;51.304;6.866;2022-09-30T02:01:50;3.50;99.90
25128;DHT22;13107;51.304;6.866;2022-09-30T02:05:57;3.50;99.90
25128;DHT22;13107;51.304;6.866;2022-09-30T02:10:13;3.50;99.90
25128;DHT22;13107;51.304;6.866;2022-09-30T02:14:22;3.40;99.90
25128;DHT22;13107;51.304;6.866;2022-09-30T02:18:37;3.40;99.90
25128;DHT22;13107;51.304;6.866;2022-09-30T02:22:49;3.50;99.90
25128;DHT22;13107;51.304;6.866;2022-09-30T02:26:55;3.50;99.90
25128;DHT22;13107;51.304;6.866;2022-09-30T02:31:01;3.40;99.90
25128;DHT22;13107;51.304;6.866;2022-09-30T02:35:09;3.40;99.90
25128;DHT22;13107;51.304;6.866;2022-09-30T02:39:36;3.40;99.90
25128;DHT22;13107;51.304;6.866;2022-09-30T02:43:41;3.30;99.90
25128;DHT22;13107;51.304;6.866;2022-09-30T02:47:52;3.30;99.90
25128;DHT22;13107;51.304;6.866;2022-09-30T02:52:25;3.30;99.90
25128;DHT22;13107;51.304;6.866;2022-09-30T03:00:49;3.20;99.90
25128;DHT22;13107;51.304;6.866;2022-09-30T03:04:51;3.20;99.90
25128;DHT22;13107;51.304;6.866;2022-09-30T03:08:53;3.30;99.90
25128;DHT22;13107;51.304;6.866;2022-09-30T03:17:20;3.20;99.90
25128;DHT22;13107;51.304;6.866;2022-09-30T03:30:04;3.20;99.90
25128;DHT22;13107;51.304;6.866;2022-09-30T03:38:40;3.20;99.90
25128;DHT22;13107;51.304;6.866;2022-09-30T03:42:53;3.20;99.90
25128;DHT22;13107;51.304;6.866;2022-09-30T03:47:05;3.20;99.90
25128;DHT22;13107;51.304;6.866;2022-09-30T03:51:08;3.20;99.90
25128;DHT22;13107;51.304;6.866;2022-09-30T03:55:10;3.20;99.90
25128;DHT22;13107;51.304;6.866;2022-09-30T03:59:21;3.20;99.90
25128;DHT22;13107;51.304;6.866;2022-09-30T04:03:24;3.20;99.90
25128;DHT22;13107;51.304;6.866;2022-09-30T04:07:28;3.10;99.90
25128;DHT22;13107;51.304;6.866;2022-09-30T04:11:29;3.10;99.90
25128;DHT22;13107;51.304;6.866;2022-09-30T04:15:31;3.10;99.90
25128;DHT22;13107;51.304;6.866;2022-09-30T04:19:33;3.10;99.90
25128;DHT22;13107;51.304;6.866;2022-09-30T04:23:40;3.20;99.90
25128;DHT22;13107;51.304;6.866;2022-09-30T04:27:41;3.20;99.90
25128;DHT22;13107;51.304;6.866;2022-09-30T04:31:43;3.30;99.90
25128;DHT22;13107;51.304;6.866;2022-09-30T04:35:45;3.20;99.90
25128;DHT22;13107;51.304;6.866;2022-09-30T04:39:47;3.20;99.90
25128;DHT22;13107;51.304;6.866;2022-09-30T04:43:48;3.20;99.90
25128;DHT22;13107;51.304;6.866;2022-09-30T04:47:50;3.20;99.90
25128;DHT22;13107;51.304;6.866;2022-09-30T04:51:51;3.30;99.90
25128;DHT22;13107;51.304;6.866;2022-09-30T04:56:00;3.30;99.90
25128;DHT22;13107;51.304;6.866;2022-09-30T05:00:03;3.20;99.90
25128;DHT22;13107;51.304;6.866;2022-09-30T05:04:05;3.30;99.90
25128;DHT22;13107;51.304;6.866;2022-09-30T05:08:08;3.30;99.90
25128;DHT22;13107;51.304;6.866;2022-09-30T05:12:10;3.30;99.90
25128;DHT22;13107;51.304;6.866;2022-09-30T05:16:13;3.40;99.90
25128;DHT22;13107;51.304;6.866;2022-09-30T05:20:15;3.30;99.90
25128;DHT22;13107;51.304;6.866;2022-09-30T05:24:21;3.40;99.90
25128;DHT22;13107;51.304;6.866;2022-09-30T05:28:23;3.30;99.90
25128;DHT22;13107;51.304;6.866;2022-09-30T05:32:26;3.30;99.90
25128;DHT22;13107;51.304;6.866;2022-09-30T05:36:27;3.40;99.90
25128;DHT22;13107;51.304;6.866;2022-09-30T05:40:30;3.40;99.90
25128;DHT22;13107;51.304;6.866;2022-09-30T05:44:31;3.40;99.90
25128;DHT22;13107;51.304;6.866;2022-09-30T05:48:33;3.40;99.90
25128;DHT22;13107;51.304;6.866;2022-09-30T05:52:35;3.40;99.90
25128;DHT22;13107;51.304;6.866;2022-09-30T05:56:37;3.40;99.90
25128;DHT22;13107;51.304;6.866;2022-09-30T06:00:43;3.40;99.90
25128;DHT22;13107;51.304;6.866;2022-09-30T06:04:45;3.40;99.90
25128;DHT22;13107;51.304;6.866;2022-09-30T06:08:47;3.50;99.90
25128;DHT22;13107;51.304;6.866;2022-09-30T06:12:49;3.60;99.90
25128;DHT22;13107;51.304;6.866;2022-09-30T06:16:50;3.60;99.90
25128;DHT22;13107;51.304;6.866;2022-09-30T06:20:55;3.70;99.90
25128;DHT22;13107;51.304;6.866;2022-09-30T06:24:57;3.70;99.90
25128;DHT22;13107;51.304;6.866;2022-09-30T06:28:59;3.80;99.90
25128;DHT22;13107;51.304;6.866;2022-09-30T06:33:00;3.90;99.90
25128;DHT22;13107;51.304;6.866;2022-09-30T06:37:02;4.00;99.90
25128;DHT22;13107;51.304;6.866;2022-09-30T06:41:05;4.10;99.90
25128;DHT22;13107;51.304;6.866;2022-09-30T06:45:07;4.30;99.90
25128;DHT22;13107;51.304;6.866;2022-09-30T06:49:09;4.40;99.90
25128;DHT22;13107;51.304;6.866;2022-09-30T06:53:14;4.70;99.90
25128;DHT22;13107;51.304;6.866;2022-09-30T06:57:16;4.90;99.90
25128;DHT22;13107;51.304;6.866;2022-09-30T07:01:18;5.20;99.90
25128;DHT22;13107;51.304;6.866;2022-09-30T07:05:22;5.40;99.90
25128;DHT22;13107;51.304;6.866;2022-09-30T07:09:23;5.60;99.90
25128;DHT22;13107;51.304;6.866;2022-09-30T07:13:26;5.80;99.90
25128;DHT22;13107;51.304;6.866;2022-09-30T07:17:28;6.10;99.90
25128;DHT22;13107;51.304;6.866;2022-09-30T07:21:30;6.20;99.90
25128;DHT22;13107;51.304;6.866;2022-09-30T07:25:32;6.40;99.90
25128;DHT22;13107;51.304;6.866;2022-09-30T07:29:33;6.50;99.90
25128;DHT22;13107;51.304;6.866;2022-09-30T07:33:55;6.70;99.90
25128;DHT22;13107;51.304;6.866;2022-09-30T07:37:57;6.80;99.90
25128;DHT22;13107;51.304;6.866;2022-09-30T07:41:58;7.00;99.90
25128;DHT22;13107;51.304;6.866;2022-09-30T07:46:11;7.10;99.90
25128;DHT22;13107;51.304;6.866;2022-09-30T07:50:13;7.20;99.90
25128;DHT22;13107;51.304;6.866;2022-09-30T07:54:18;7.30;99.90
25128;DHT22;13107;51.304;6.866;2022-09-30T07:58:21;7.40;99.90
25128;DHT22;13107;51.304;6.866;2022-09-30T08:02:23;7.50;99.90
25128;DHT22;13107;51.304;6.866;2022-09-30T08:06:26;7.60;99.90
25128;DHT22;13107;51.304;6.866;2022-09-30T08:10:33;7.70;99.90
25128;DHT22;13107;51.304;6.866;2022-09-30T08:14:34;7.90;99.90
25128;DHT22;13107;51.304;6.866;2022-09-30T08:18:36;8.00;99.90
25128;DHT22;13107;51.304;6.866;2022-09-30T08:22:37;8.10;99.90
25128;DHT22;13107;51.304;6.866;2022-09-30T08:26:39;8.30;99.90
25128;DHT22;13107;51.304;6.866;2022-09-30T08:30:41;8.50;99.90
25128;DHT22;13107;51.304;6.866;2022-09-30T08:34:43;8.70;99.90
25128;DHT22;13107;51.304;6.866;2022-09-30T08:38:45;8.90;99.90
25128;DHT22;13107;51.304;6.866;2022-09-30T08:43:08;9.20;99.90
25128;DHT22;13107;51.304;6.866;2022-09-30T08:47:33;9.40;99.90
25128;DHT22;13107;51.304;6.866;2022-09-30T08:51:44;9.60;99.90
25128;DHT22;13107;51.304;6.866;2022-09-30T08:55:47;9.80;99.90
25128;DHT22;13107;51.304;6.866;2022-09-30T08:59:54;10.00;99.90
25128;DHT22;13107;51.304;6.866;2022-09-30T09:03:59;10.20;99.90
25128;DHT22;13107;51.304;6.866;2022-09-30T09:08:20;10.70;99.90
25128;DHT22;13107;51.304;6.866;2022-09-30T09:21:26;12.40;99.90
25128;DHT22;13107;51.304;6.866;2022-09-30T09:25:30;12.30;99.90
25128;DHT22;13107;51.304;6.866;2022-09-30T09:29:52;12.50;99.90
25128;DHT22;13107;51.304;6.866;2022-09-30T09:34:00;13.30;99.90
25128;DHT22;13107;51.304;6.866;2022-09-30T09:46:52;16.40;99.90
25128;DHT22;13107;51.304;6.866;2022-09-30T09:50:59;17.50;99.90
25128;DHT22;13107;51.304;6.866;2022-09-30T09:55:03;18.60;99.90
25128;DHT22;13107;51.304;6.866;2022-09-30T09:59:16;19.10;99.90
25128;DHT22;13107;51.304;6.866;2022-09-30T10:03:23;20.10;99.90
25128;DHT22;13107;51.304;6.866;2022-09-30T10:07:28;19.70;99.90
25128;DHT22;13107;51.304;6.866;2022-09-30T10:11:30;19.30;99.90
25128;DHT22;13107;51.304;6.866;2022-09-30T10:15:32;19.00;99.90
25128;DHT22;13107;51.304;6.866;2022-09-30T10:19:48;18.90;99.90
25128;DHT22;13107;51.304;6.866;2022-09-30T10:23:50;18.30;99.90
25128;DHT22;13107;51.304;6.866;2022-09-30T10:27:56;17.60;99.90
25128;DHT22;13107;51.304;6.866;2022-09-30T10:32:05;17.10;99.90
25128;DHT22;13107;51.304;6.866;2022-09-30T10:36:16;16.60;99.90
25128;DHT22;13107;51.304;6.866;2022-09-30T10:40:20;16.10;99.90
25128;DHT22;13107;51.304;6.866;2022-09-30T10:44:28;15.90;99.90
25128;DHT22;13107;51.304;6.866;2022-09-30T10:48:35;15.40;99.90
25128;DHT22;13107;51.304;6.866;2022-09-30T10:52:52;15.10;99.90
25128;DHT22;13107;51.304;6.866;2022-09-30T10:57:00;14.90;99.90
25128;DHT22;13107;51.304;6.866;2022-09-30T11:01:19;14.80;99.90
25128;DHT22;13107;51.304;6.866;2022-09-30T11:05:32;14.60;99.90
25128;DHT22;13107;51.304;6.866;2022-09-30T11:09:45;14.60;99.90
25128;DHT22;13107;51.304;6.866;2022-09-30T11:13:54;14.60;99.90
25128;DHT22;13107;51.304;6.866;2022-09-30T11:18:16;14.80;99.90
25128;DHT22;13107;51.304;6.866;2022-09-30T11:22:45;14.80;99.90
25128;DHT22;13107;51.304;6.866;2022-09-30T11:26:52;14.80;99.90
25128;DHT22;13107;51.304;6.866;2022-09-30T11:44:06;15.50;99.90
25128;DHT22;13107;51.304;6.866;2022-09-30T11:53:07;15.90;99.90
25128;DHT22;13107;51.304;6.866;2022-09-30T11:57:29;15.90;99.90
25128;DHT22;13107;51.304;6.866;2022-09-30T12:01:37;16.00;99.90
25128;DHT22;13107;51.304;6.866;2022-09-30T12:05:45;16.10;99.90
25128;DHT22;13107;51.304;6.866;2022-09-30T12:09:55;16.30;99.90
25128;DHT22;13107;51.304;6.866;2022-09-30T12:14:04;16.10;99.90
25128;DHT22;13107;51.304;6.866;2022-09-30T12:18:20;16.00;99.90
25128;DHT22;13107;51.304;6.866;2022-09-30T12:22:27;15.70;99.90
25128;DHT22;13107;51.304;6.866;2022-09-30T12:26:30;15.60;99.90
25128;DHT22;13107;51.304;6.866;2022-09-30T12:30:33;15.80;99.90
25128;DHT22;13107;51.304;6.866;2022-09-30T12:47:48;15.90;99.90
25128;DHT22;13107;51.304;6.866;2022-09-30T12:52:05;16.40;99.90
25128;DHT22;13107;51.304;6.866;2022-09-30T12:56:13;16.60;99.90
25128;DHT22;13107;51.304;6.866;2022-09-30T13:00:25;16.70;99.90
25128;DHT22;13107;51.304;6.866;2022-09-30T13:04:36;16.50;99.90
25128;DHT22;13107;51.304;6.866;2022-09-30T13:08:45;16.40;99.90
25128;DHT22;13107;51.304;6.866;2022-09-30T13:13:21;16.10;99.90
25128;DHT22;13107;51.304;6.866;2022-09-30T13:17:25;16.20;99.90
25128;DHT22;13107;51.304;6.866;2022-09-30T13:21:27;16.30;99.90
25128;DHT22;13107;51.304;6.866;2022-09-30T13:25:52;16.30;99.90
25128;DHT22;13107;51.304;6.866;2022-09-30T13:29:54;16.80;99.90
25128;DHT22;13107;51.304;6.866;2022-09-30T13:34:04;17.20;99.90
25128;DHT22;13107;51.304;6.866;2022-09-30T13:38:16;17.20;99.90
25128;DHT22;13107;51.304;6.866;2022-09-30T13:46:21;16.70;99.90
25128;DHT22;13107;51.304;6.866;2022-09-30T13:50:40;16.50;99.90
25128;DHT22;13107;51.304;6.866;2022-09-30T13:54:46;16.40;99.90
25128;DHT22;13107;51.304;6.866;2022-09-30T14:03:31;16.20;99.90
25128;DHT22;13107;51.304;6.866;2022-09-30T14:12:21;16.80;99.90
25128;DHT22;13107;51.304;6.866;2022-09-30T14:25:13;17.10;99.90
25128;DHT22;13107;51.304;6.866;2022-09-30T14:33:36;17.00;99.90
25128;DHT22;13107;51.304;6.866;2022-09-30T14:42:00;16.90;99.90
25128;DHT22;13107;51.304;6.866;2022-09-30T14:46:06;17.00;99.90
25128;DHT22;13107;51.304;6.866;2022-09-30T14:50:13;17.00;99.90
25128;DHT22;13107;51.304;6.866;2022-09-30T14:54:19;16.90;99.90
25128;DHT22;13107;51.304;6.866;2022-09-30T14:58:30;17.00;99.90
25128;DHT22;13107;51.304;6.866;2022-09-30T15:02:53;16.90;99.90
25128;DHT22;13107;51.304;6.866;2022-09-30T15:06:56;16.70;99.90
25128;DHT22;13107;51.304;6.866;2022-09-30T15:10:58;16.80;99.90
25128;DHT22;13107;51.304;6.866;2022-09-30T15:14:59;16.70;99.90
25128;DHT22;13107;51.304;6.866;2022-09-30T15:19:02;16.60;99.90
25128;DHT22;13107;51.304;6.866;2022-09-30T15:23:09;16.50;99.90
25128;DHT22;13107;51.304;6.866;2022-09-30T15:27:20;16.30;99.90
25128;DHT22;13107;51.304;6.866;2022-09-30T15:31:26;16.30;99.90
25128;DHT22;13107;51.304;6.866;2022-09-30T15:35:29;16.30;99.90
25128;DHT22;13107;51.304;6.866;2022-09-30T15:39:45;16.20;99.90
25128;DHT22;13107;51.304;6.866;2022-09-30T15:44:18;16.20;99.90
25128;DHT22;13107;51.304;6.866;2022-09-30T15:48:39;16.20;99.90
25128;DHT22;13107;51.304;6.866;2022-09-30T15:52:45;16.10;99.90
25128;DHT22;13107;51.304;6.866;2022-09-30T15:56:47;16.00;99.90
25128;DHT22;13107;51.304;6.866;2022-09-30T16:00:49;15.90;99.90
25128;DHT22;13107;51.304;6.866;2022-09-30T16:04:53;15.70;99.90
25128;DHT22;13107;51.304;6.866;2022-09-30T16:08:57;15.60;99.90
25128;DHT22;13107;51.304;6.866;2022-09-30T16:13:02;15.50;99.90
25128;DHT22;13107;51.304;6.866;2022-09-30T16:17:06;15.30;99.90
25128;DHT22;13107;51.304;6.866;2022-09-30T16:25:44;15.10;99.90
25128;DHT22;13107;51.304;6.866;2022-09-30T16:29:47;15.00;99.90
25128;DHT22;13107;51.304;6.866;2022-09-30T16:33:48;15.00;99.90
25128;DHT22;13107;51.304;6.866;2022-09-30T16:37:57;14.80;99.90
25128;DHT22;13107;51.304;6.866;2022-09-30T16:41:59;14.60;99.90
25128;DHT22;13107;51.304;6.866;2022-09-30T16:46:01;14.60;99.90
25128;DHT22;13107;51.304;6.866;2022-09-30T16:50:18;14.50;99.90
25128;DHT22;13107;51.304;6.866;2022-09-30T16:54:21;14.40;99.90
25128;DHT22;13107;51.304;6.866;2022-09-30T16:58:23;14.20;99.90
25128;DHT22;13107;51.304;6.866;2022-09-30T17:02:24;14.00;99.90
25128;DHT22;13107;51.304;6.866;2022-09-30T17:06:28;13.90;99.90
25128;DHT22;13107;51.304;6.866;2022-09-30T17:10:31;13.70;99.90
25128;DHT22;13107;51.304;6.866;2022-09-30T17:14:35;13.50;99.90
25128;DHT22;13107;51.304;6.866;2022-09-30T17:18:37;13.40;99.90
25128;DHT22;13107;51.304;6.866;2022-09-30T17:22:39;13.10;99.90
25128;DHT22;13107;51.304;6.866;2022-09-30T17:26:41;13.00;99.90
25128;DHT22;13107;51.304;6.866;2022-09-30T17:30:44;12.90;99.90
25128;DHT22;13107;51.304;6.866;2022-09-30T17:34:48;12.80;99.90
25128;DHT22;13107;51.304;6.866;2022-09-30T17:38:52;12.60;99.90
25128;DHT22;13107;51.304;6.866;2022-09-30T17:42:55;12.40;99.90
25128;DHT22;13107;51.304;6.866;2022-09-30T17:47:10;12.20;99.90
25128;DHT22;13107;51.304;6.866;2022-09-30T17:51:13;12.10;99.90
25128;DHT22;13107;51.304;6.866;2022-09-30T17:55:18;11.90;99.90
25128;DHT22;13107;51.304;6.866;2022-09-30T17:59:20;11.80;99.90
25128;DHT22;13107;51.304;6.866;2022-09-30T18:03:22;11.60;99.90
25128;DHT22;13107;51.304;6.866;2022-09-30T18:07:24;11.50;99.90
25128;DHT22;13107;51.304;6.866;2022-09-30T18:11:28;11.40;99.90
25128;DHT22;13107;51.304;6.866;2022-09-30T18:15:32;11.40;99.90
25128;DHT22;13107;51.304;6.866;2022-09-30T18:19:33;11.30;99.90
25128;DHT22;13107;51.304;6.866;2022-09-30T18:23:36;11.20;99.90
25128;DHT22;13107;51.304;6.866;2022-09-30T18:27:37;11.20;99.90
25128;DHT22;13107;51.304;6.866;2022-09-30T18:31:39;11.10;99.90
25128;DHT22;13107;51.304;6.866;2022-09-30T18:35:41;11.00;99.90
25128;DHT22;13107;51.304;6.866;2022-09-30T18:39:42;10.90;99.90
25128;DHT22;13107;51.304;6.866;2022-09-30T18:43:44;10.90;99.90
25128;DHT22;13107;51.304;6.866;2022-09-30T18:47:46;10.80;99.90
25128;DHT22;13107;51.304;6.866;2022-09-30T18:51:48;10.70;99.90
25128;DHT22;13107;51.304;6.866;2022-09-30T18:55:50;10.70;99.90
25128;DHT22;13107;51.304;6.866;2022-09-30T18:59:51;10.70;99.90
25128;DHT22;13107;51.304;6.866;2022-09-30T19:03:54;10.60;99.90
25128;DHT22;13107;51.304;6.866;2022-09-30T19:07:55;10.70;99.90
25128;DHT22;13107;51.304;6.866;2022-09-30T19:11:57;10.60;99.90
25128;DHT22;13107;51.304;6.866;2022-09-30T19:16:04;10.60;99.90
25128;DHT22;13107;51.304;6.866;2022-09-30T19:20:06;10.50;99.90
25128;DHT22;13107;51.304;6.866;2022-09-30T19:24:08;10.50;99.90
25128;DHT22;13107;51.304;6.866;2022-09-30T19:28:10;10.50;99.90
25128;DHT22;13107;51.304;6.866;2022-09-30T19:32:12;10.40;99.90
25128;DHT22;13107;51.304;6.866;2022-09-30T19:36:16;10.50;99.90
25128;DHT22;13107;51.304;6.866;2022-09-30T19:40:17;10.40;99.90
25128;DHT22;13107;51.304;6.866;2022-09-30T19:44:22;10.50;99.90
25128;DHT22;13107;51.304;6.866;2022-09-30T19:48:25;10.50;99.90
25128;DHT22;13107;51.304;6.866;2022-09-30T19:52:27;10.60;99.90
25128;DHT22;13107;51.304;6.866;2022-09-30T19:56:28;10.60;99.90
25128;DHT22;13107;51.304;6.866;2022-09-30T20:00:30;10.60;99.90
25128;DHT22;13107;51.304;6.866;2022-09-30T20:04:32;10.70;99.90
25128;DHT22;13107;51.304;6.866;2022-09-30T20:08:35;10.70;99.90
25128;DHT22;13107;51.304;6.866;2022-09-30T20:12:37;10.80;99.90
25128;DHT22;13107;51.304;6.866;2022-09-30T20:16:42;10.90;99.90
25128;DHT22;13107;51.304;6.866;2022-09-30T20:20:44;10.90;99.90
25128;DHT22;13107;51.304;6.866;2022-09-30T20:24:46;10.80;99.90
25128;DHT22;13107;51.304;6.866;2022-09-30T20:28:48;10.90;99.90
25128;DHT22;13107;51.304;6.866;2022-09-30T20:32:49;11.00;99.90
25128;DHT22;13107;51.304;6.866;2022-09-30T20:36:51;11.00;99.90
25128;DHT22;13107;51.304;6.866;2022-09-30T20:40:54;11.10;99.90
25128;DHT22;13107;51.304;6.866;2022-09-30T20:44:56;11.10;99.90
25128;DHT22;13107;51.304;6.866;2022-09-30T20:49:01;11.20;99.90
25128;DHT22;13107;51.304;6.866;2022-09-30T20:53:08;11.30;99.90
25128;DHT22;13107;51.304;6.866;2022-09-30T20:57:10;11.20;99.90
25128;DHT22;13107;51.304;6.866;2022-09-30T21:01:13;11.50;99.90
25128;DHT22;13107;51.304;6.866;2022-09-30T21:05:16;11.50;99.90
25128;DHT22;13107;51.304;6.866;2022-09-30T21:09:17;11.70;99.90
25128;DHT22;13107;51.304;6.866;2022-09-30T21:13:19;11.60;99.90
25128;DHT22;13107;51.304;6.866;2022-09-30T21:17:21;11.60;99.90
25128;DHT22;13107;51.304;6.866;2022-09-30T21:21:22;11.50;99.90
25128;DHT22;13107;51.304;6.866;2022-09-30T21:25:26;11.60;99.90
25128;DHT22;13107;51.304;6.866;2022-09-30T21:29:27;11.60;99.90
25128;DHT22;13107;51.304;6.866;2022-09-30T21:33:34;11.50;99.90
25128;DHT22;13107;51.304;6.866;2022-09-30T21:37:35;11.40;99.90
25128;DHT22;13107;51.304;6.866;2022-09-30T21:41:37;11.50;99.90
25128;DHT22;13107;51.304;6.866;2022-09-30T21:45:41;11.50;99.90
25128;DHT22;13107;51.304;6.866;2022-09-30T21:49:42;11.50;99.90
25128;DHT22;13107;51.304;6.866;2022-09-30T21:53:44;11.60;99.90
25128;DHT22;13107;51.304;6.866;2022-09-30T21:57:47;11.70;99.90
25128;DHT22;13107;51.304;6.866;2022-09-30T22:01:48;11.70;99.90
25128;DHT22;13107;51.304;6.866;2022-09-30T22:05:54;11.60;99.90
25128;DHT22;13107;51.304;6.866;2022-09-30T22:09:56;11.70;99.90
25128;DHT22;13107;51.304;6.866;2022-09-30T22:13:58;11.70;99.90
25128;DHT22;13107;51.304;6.866;2022-09-30T22:18:00;11.80;99.90
25128;DHT22;13107;51.304;6.866;2022-09-30T22:22:03;11.90;99.90
25128;DHT22;13107;51.304;6.866;2022-09-30T22:26:09;11.90;99.90
25128;DHT22;13107;51.304;6.866;2022-09-30T22:30:11;11.90;99.90
25128;DHT22;13107;51.304;6.866;2022-09-30T22:34:13;11.90;99.90
25128;DHT22;13107;51.304;6.866;2022-09-30T22:38:34;11.80;99.90
25128;DHT22;13107;51.304;6.866;2022-09-30T22:42:36;11.80;99.90
25128;DHT22;13107;51.304;6.866;2022-09-30T22:46:38;11.80;99.90
25128;DHT22;13107;51.304;6.866;2022-09-30T22:50:40;11.80;99.90
25128;DHT22;13107;51.304;6.866;2022-09-30T22:54:41;11.70;99.90
25128;DHT22;13107;51.304;6.866;2022-09-30T22:58:43;11.70;99.90
25128;DHT22;13107;51.304;6.866;2022-09-30T23:02:47;11.70;99.90
25128;DHT22;13107;51.304;6.866;2022-09-30T23:06:54;11.70;99.90
25128;DHT22;13107;51.304;6.866;2022-09-30T23:10:55;11.60;99.90
25128;DHT22;13107;51.304;6.866;2022-09-30T23:14:57;11.70;99.90
25128;DHT22;13107;51.304;6.866;2022-09-30T23:18:59;11.70;99.90
25128;DHT22;13107;51.304;6.866;2022-09-30T23:23:01;11.50;99.90
25128;DHT22;13107;51.304;6.866;2022-09-30T23:27:03;11.60;99.90
25128;DHT22;13107;51.304;6.866;2022-09-30T23:31:08;11.50;99.90
25128;DHT22;13107;51.304;6.866;2022-09-30T23:35:09;11.50;99.90
25128;DHT22;13107;51.304;6.866;2022-09-30T23:39:16;11.50;99.90
25128;DHT22;13107;51.304;6.866;2022-09-30T23:43:19;11.50;99.90
25128;DHT22;13107;51.304;6.866;2022-09-30T23:47:22;11.50;99.90
25128;DHT22;13107;51.304;6.866;2022-09-30T23:51:24;11.50;99.90
25128;DHT22;13107;51.304;6.866;2022-09-30T23:55:28;11.50;99.90
25128;DHT22;13107;51.304;6.866;2022-09-30T23:59:31;11.50;99.90
